Time;durP1;ratioP1;P1;durP2;ratioP2;P2;SDS_P1;SDS_P2;PMS_P1;PMS_P2;Temp;Humidity;BMP_temperature;BMP_pressure;BME280_temperature;BME280_humidity;BME280_pressure;Samples;Min_cycle;Max_cycle;Signal;HPM_P1;HPM_P2
2022/03/18 00:00:18;;;;;;;13.83;5.73;;;-0.10;99.90;;;;;;5073670;28;20281;-82
2022/03/18 00:02:45;;;;;;;20.13;6.17;;;-0.20;99.90;;;;;;5067370;28;20240;-82
2022/03/18 00:05:12;;;;;;;20.90;5.97;;;-0.20;99.90;;;;;;5071024;28;20258;-81
2022/03/18 00:07:40;;;;;;;12.93;5.83;;;-0.20;99.90;;;;;;5072038;28;20292;-81
2022/03/18 00:10:08;;;;;;;24.83;6.20;;;-0.20;99.90;;;;;;5090230;28;20234;-81
2022/03/18 00:12:37;;;;;;;23.77;6.80;;;-0.20;99.90;;;;;;5068643;28;20231;-81
2022/03/18 00:15:08;;;;;;;27.97;6.70;;;-0.30;99.90;;;;;;5071572;28;20237;-80
2022/03/18 00:17:35;;;;;;;18.10;5.60;;;-0.30;99.90;;;;;;5070660;28;20272;-81
2022/03/18 00:20:02;;;;;;;17.93;5.80;;;-0.30;99.90;;;;;;5067893;28;20226;-81
2022/03/18 00:22:29;;;;;;;20.00;6.30;;;-0.40;99.90;;;;;;5064305;28;20754;-82
2022/03/18 00:24:55;;;;;;;21.40;6.00;;;-0.40;99.90;;;;;;5072126;28;20237;-81
2022/03/18 00:27:23;;;;;;;20.83;6.07;;;-0.50;99.90;;;;;;5070632;28;20350;-80
2022/03/18 00:29:51;;;;;;;18.63;6.23;;;-0.60;99.90;;;;;;5074799;28;20265;-80
2022/03/18 00:32:19;;;;;;;22.67;5.53;;;-0.50;99.90;;;;;;5075491;28;20217;-82
2022/03/18 00:34:45;;;;;;;26.90;6.53;;;-0.60;99.90;;;;;;5069012;28;20730;-81
2022/03/18 00:37:12;;;;;;;19.53;5.80;;;-0.60;99.90;;;;;;5066282;28;20821;-82
2022/03/18 00:39:39;;;;;;;21.40;6.40;;;-0.60;99.90;;;;;;5067842;28;20592;-79
2022/03/18 00:42:07;;;;;;;16.27;6.20;;;-0.60;99.90;;;;;;5071904;28;20277;-80
2022/03/18 00:44:33;;;;;;;16.67;6.00;;;-0.60;99.90;;;;;;5069739;28;20257;-80
2022/03/18 00:47:00;;;;;;;24.23;6.70;;;-0.70;99.90;;;;;;5074283;28;20769;-82
2022/03/18 00:52:14;;;;;;;10.73;5.20;;;-0.70;99.90;;;;;;5066517;28;20316;-82
2022/03/18 00:54:43;;;;;;;14.40;5.57;;;-0.80;99.90;;;;;;5069683;28;20618;-82
2022/03/18 00:57:10;;;;;;;13.90;6.07;;;-0.80;99.90;;;;;;5074473;28;20227;-81
2022/03/18 00:59:38;;;;;;;15.83;5.90;;;-0.80;99.90;;;;;;5070682;28;20235;-81
2022/03/18 01:02:05;;;;;;;19.60;5.57;;;-0.90;99.90;;;;;;5072281;28;20229;-81
2022/03/18 01:04:34;;;;;;;19.97;5.80;;;-0.90;99.90;;;;;;5068913;28;20275;-81
2022/03/18 01:07:00;;;;;;;17.67;5.20;;;-0.90;99.90;;;;;;5069631;28;20222;-81
2022/03/18 01:09:27;;;;;;;19.87;5.17;;;-0.90;99.90;;;;;;5071167;28;20227;-81
2022/03/18 01:11:55;;;;;;;17.27;5.80;;;-1.00;99.90;;;;;;5070535;28;20230;-81
2022/03/18 01:14:23;;;;;;;18.03;6.17;;;-1.00;99.90;;;;;;5073353;28;20901;-82
2022/03/18 01:16:50;;;;;;;20.67;5.57;;;-1.00;99.90;;;;;;5070144;28;20228;-81
2022/03/18 01:19:18;;;;;;;16.70;5.80;;;-1.10;99.90;;;;;;5067212;28;20313;-81
2022/03/18 01:21:46;;;;;;;24.97;5.60;;;-1.10;99.90;;;;;;5070870;28;20229;-81
2022/03/18 01:24:13;;;;;;;23.70;6.10;;;-1.10;99.90;;;;;;5067393;28;20238;-81
2022/03/18 01:26:40;;;;;;;11.80;5.27;;;-1.10;99.90;;;;;;5068031;28;20301;-81
2022/03/18 01:29:07;;;;;;;15.00;5.83;;;-1.10;99.90;;;;;;5070254;28;20235;-81
2022/03/18 01:31:34;;;;;;;17.60;5.93;;;-1.10;99.90;;;;;;5069205;28;20314;-81
2022/03/18 01:34:00;;;;;;;24.43;6.60;;;-1.10;99.90;;;;;;5070557;28;20223;-81
2022/03/18 01:36:27;;;;;;;23.30;6.47;;;-1.10;99.90;;;;;;5070324;28;20249;-81
2022/03/18 01:38:55;;;;;;;10.70;4.90;;;-1.10;99.90;;;;;;5067279;28;20231;-81
2022/03/18 01:41:22;;;;;;;22.47;6.47;;;-1.10;99.90;;;;;;5069177;28;20833;-81
2022/03/18 01:43:49;;;;;;;15.83;5.40;;;-1.10;99.90;;;;;;5070798;28;20234;-82
2022/03/18 01:46:17;;;;;;;13.87;5.90;;;-1.20;99.90;;;;;;5068132;28;20228;-80
2022/03/18 01:48:45;;;;;;;17.00;5.80;;;-1.20;99.90;;;;;;5071300;28;20235;-80
2022/03/18 01:51:15;;;;;;;24.53;6.07;;;-1.10;99.90;;;;;;5076081;28;20232;-80
2022/03/18 01:53:43;;;;;;;21.03;7.10;;;-1.10;99.90;;;;;;5069043;28;20866;-81
2022/03/18 01:56:12;;;;;;;17.70;6.80;;;-1.20;99.90;;;;;;5067342;28;20429;-81
2022/03/18 01:58:38;;;;;;;18.17;5.80;;;-1.20;99.90;;;;;;5072647;28;20249;-81
2022/03/18 02:01:09;;;;;;;18.70;6.13;;;-1.20;99.90;;;;;;5065360;28;20579;-81
2022/03/18 02:03:36;;;;;;;19.17;5.23;;;-1.20;99.90;;;;;;5067202;28;20233;-81
2022/03/18 02:06:02;;;;;;;24.07;6.13;;;-1.20;99.90;;;;;;5067313;28;20229;-81
2022/03/18 02:08:29;;;;;;;12.80;5.30;;;-1.20;99.90;;;;;;5048771;28;20236;-82
2022/03/18 02:10:57;;;;;;;15.47;6.20;;;-1.30;99.90;;;;;;5050211;28;20230;-81
2022/03/18 02:13:25;;;;;;;17.80;6.23;;;-1.30;99.90;;;;;;5070815;28;20234;-81
2022/03/18 02:15:51;;;;;;;16.70;5.87;;;-1.40;99.90;;;;;;5071811;28;20226;-81
2022/03/18 02:18:18;;;;;;;23.87;6.87;;;-1.40;99.90;;;;;;5063364;28;20230;-81
2022/03/18 02:20:45;;;;;;;15.73;6.03;;;-1.40;99.90;;;;;;5071526;28;20230;-81
2022/03/18 02:23:13;;;;;;;16.50;6.27;;;-1.50;99.90;;;;;;5068624;28;20229;-81
2022/03/18 02:25:39;;;;;;;22.00;7.13;;;-1.50;99.90;;;;;;5072494;28;20220;-81
2022/03/18 02:28:06;;;;;;;16.53;6.43;;;-1.50;99.90;;;;;;5068306;28;20246;-81
2022/03/18 02:30:35;;;;;;;16.33;5.50;;;-1.50;99.90;;;;;;5067009;28;20643;-81
2022/03/18 02:33:02;;;;;;;25.17;7.17;;;-1.50;99.90;;;;;;5067213;28;20250;-81
2022/03/18 02:35:30;;;;;;;16.70;5.97;;;-1.50;99.90;;;;;;5062599;28;20252;-80
2022/03/18 02:37:57;;;;;;;14.47;5.00;;;-1.50;99.90;;;;;;5068472;28;20230;-81
2022/03/18 02:40:26;;;;;;;15.03;6.10;;;-1.50;99.90;;;;;;5069916;28;20562;-81
2022/03/18 02:42:53;;;;;;;24.77;6.47;;;-1.50;99.90;;;;;;5072900;28;20223;-80
2022/03/18 02:45:20;;;;;;;22.27;6.10;;;-1.60;99.90;;;;;;5069575;28;20563;-81
2022/03/18 02:47:47;;;;;;;21.17;6.20;;;-1.50;99.90;;;;;;5067498;28;20229;-81
2022/03/18 02:50:15;;;;;;;24.57;6.90;;;-1.50;99.90;;;;;;5073370;28;20216;-81
2022/03/18 02:52:42;;;;;;;12.33;5.80;;;-1.60;99.90;;;;;;5073284;28;20223;-81
2022/03/18 02:55:10;;;;;;;18.60;6.43;;;-1.60;99.90;;;;;;5073329;28;20640;-82
2022/03/18 02:57:38;;;;;;;20.97;6.37;;;-1.60;99.90;;;;;;5068584;28;20223;-82
2022/03/18 03:00:07;;;;;;;18.57;6.20;;;-1.60;99.90;;;;;;5067656;28;20236;-81
2022/03/18 03:02:34;;;;;;;16.50;6.20;;;-1.60;99.90;;;;;;5072627;28;20239;-81
2022/03/18 03:07:59;;;;;;;19.33;6.33;;;-1.60;99.90;;;;;;5074752;28;20289;-81
2022/03/18 03:10:26;;;;;;;14.37;6.40;;;-1.70;99.90;;;;;;5066116;28;20231;-80
2022/03/18 03:12:54;;;;;;;13.83;5.53;;;-1.70;99.90;;;;;;5077299;28;20236;-80
2022/03/18 03:15:21;;;;;;;13.40;5.67;;;-1.70;99.90;;;;;;5075063;28;20257;-80
2022/03/18 03:17:48;;;;;;;16.93;6.37;;;-1.70;99.90;;;;;;5074086;28;20223;-80
2022/03/18 03:20:15;;;;;;;16.53;6.43;;;-1.70;99.90;;;;;;5071104;28;20236;-80
2022/03/18 03:22:42;;;;;;;17.60;6.77;;;-1.70;99.90;;;;;;5072606;28;20219;-82
2022/03/18 03:25:09;;;;;;;27.37;7.50;;;-1.70;99.90;;;;;;5073421;28;20228;-81
2022/03/18 03:27:36;;;;;;;21.30;7.30;;;-1.70;99.90;;;;;;5074361;28;20294;-82
2022/03/18 03:30:06;;;;;;;26.27;8.33;;;-1.70;99.90;;;;;;5073406;28;20273;-82
2022/03/18 03:32:33;;;;;;;16.37;6.93;;;-1.70;99.90;;;;;;5071549;28;20230;-81
2022/03/18 03:35:00;;;;;;;17.53;7.23;;;-1.70;99.90;;;;;;5069147;28;20237;-82
2022/03/18 03:37:28;;;;;;;14.93;6.50;;;-1.70;99.90;;;;;;5070051;28;20232;-81
2022/03/18 03:39:55;;;;;;;19.13;6.60;;;-1.60;99.90;;;;;;5075789;28;20274;-81
2022/03/18 03:42:22;;;;;;;15.07;7.10;;;-1.70;99.90;;;;;;5070327;28;20230;-81
2022/03/18 03:44:49;;;;;;;19.03;7.10;;;-1.70;99.90;;;;;;5064628;28;20233;-81
2022/03/18 03:47:17;;;;;;;22.50;7.50;;;-1.70;99.90;;;;;;5072857;28;20233;-79
2022/03/18 03:49:45;;;;;;;20.20;7.50;;;-1.70;99.90;;;;;;5072543;28;20227;-82
2022/03/18 03:52:11;;;;;;;26.40;8.00;;;-1.70;99.90;;;;;;5073665;28;20225;-82
2022/03/18 03:54:40;;;;;;;22.03;7.43;;;-1.70;99.90;;;;;;5072527;28;20597;-82
2022/03/18 03:57:07;;;;;;;17.47;6.90;;;-1.70;99.90;;;;;;5067009;28;20257;-81
2022/03/18 03:59:34;;;;;;;18.97;7.57;;;-1.60;99.90;;;;;;5074287;28;20225;-81
2022/03/18 04:02:03;;;;;;;18.93;6.50;;;-1.60;99.90;;;;;;5070332;28;20240;-81
2022/03/18 04:04:32;;;;;;;15.37;6.53;;;-1.60;99.90;;;;;;5070658;28;20226;-81
2022/03/18 04:06:59;;;;;;;23.10;7.23;;;-1.60;99.90;;;;;;5071660;28;20228;-81
2022/03/18 04:09:25;;;;;;;19.23;6.83;;;-1.70;99.90;;;;;;5072505;28;20247;-81
2022/03/18 04:11:52;;;;;;;17.93;6.90;;;-1.70;99.90;;;;;;5075639;28;20240;-81
2022/03/18 04:14:20;;;;;;;23.50;7.90;;;-1.70;99.90;;;;;;5068908;28;20982;-82
2022/03/18 04:16:46;;;;;;;14.63;7.10;;;-1.70;99.90;;;;;;5071582;28;20231;-82
2022/03/18 04:19:13;;;;;;;17.97;7.40;;;-1.70;99.90;;;;;;5071416;28;20230;-80
2022/03/18 04:21:42;;;;;;;22.63;9.27;;;-1.70;99.90;;;;;;5069730;28;20227;-80
2022/03/18 04:24:09;;;;;;;24.97;7.23;;;-1.70;99.90;;;;;;5072837;28;20284;-80
2022/03/18 04:26:35;;;;;;;13.67;6.93;;;-1.70;99.90;;;;;;5072289;28;20234;-80
2022/03/18 04:29:02;;;;;;;16.00;6.43;;;-1.80;99.90;;;;;;5068435;28;20237;-81
2022/03/18 04:31:29;;;;;;;11.57;5.70;;;-1.80;99.90;;;;;;5071147;28;20246;-80
2022/03/18 04:33:55;;;;;;;16.13;7.40;;;-1.90;99.90;;;;;;5076485;28;20224;-80
2022/03/18 04:36:22;;;;;;;21.87;7.57;;;-1.90;99.90;;;;;;5068891;28;20238;-81
2022/03/18 04:38:50;;;;;;;16.17;7.53;;;-1.90;99.90;;;;;;5072801;28;20595;-80
2022/03/18 04:41:17;;;;;;;20.50;8.13;;;-1.90;99.90;;;;;;5068225;28;20226;-81
2022/03/18 04:43:43;;;;;;;82.07;10.60;;;-1.90;99.90;;;;;;5072017;28;20248;-80
2022/03/18 04:46:10;;;;;;;20.40;8.03;;;-1.80;99.90;;;;;;5072102;28;20223;-80
2022/03/18 04:48:37;;;;;;;19.10;8.53;;;-1.90;99.90;;;;;;5072955;28;20234;-80
2022/03/18 04:51:04;;;;;;;23.73;8.23;;;-1.90;99.90;;;;;;5070486;28;20225;-80
2022/03/18 04:53:31;;;;;;;23.60;8.07;;;-1.90;99.90;;;;;;5070269;28;20638;-80
2022/03/18 04:55:59;;;;;;;18.50;7.20;;;-1.80;99.90;;;;;;5070379;28;20230;-80
2022/03/18 04:58:26;;;;;;;28.40;8.40;;;-1.80;99.90;;;;;;5069650;28;20241;-80
2022/03/18 05:00:52;;;;;;;20.43;7.93;;;-1.80;99.90;;;;;;5069979;28;20230;-81
2022/03/18 05:03:19;;;;;;;20.90;7.00;;;-1.80;99.90;;;;;;5070577;28;20241;-81
2022/03/18 05:05:46;;;;;;;19.03;7.23;;;-1.80;99.90;;;;;;5073238;28;20234;-81
2022/03/18 05:08:13;;;;;;;22.23;7.57;;;-1.80;99.90;;;;;;5072357;28;20251;-81
2022/03/18 05:10:39;;;;;;;16.00;7.53;;;-1.80;99.90;;;;;;5069218;28;20237;-79
2022/03/18 05:13:07;;;;;;;17.73;7.83;;;-1.80;99.90;;;;;;5068613;28;20234;-80
2022/03/18 05:15:34;;;;;;;20.13;7.43;;;-1.90;99.90;;;;;;5068357;28;20697;-81
2022/03/18 05:18:01;;;;;;;15.87;6.57;;;-1.80;99.90;;;;;;5067757;28;20987;-81
2022/03/18 05:20:29;;;;;;;27.27;7.70;;;-1.80;99.90;;;;;;5061954;28;20234;-81
2022/03/18 05:22:55;;;;;;;23.30;7.60;;;-1.80;99.90;;;;;;5070817;28;20242;-81
2022/03/18 05:25:22;;;;;;;22.40;8.00;;;-1.90;99.90;;;;;;5066377;28;20239;-82
2022/03/18 05:27:50;;;;;;;15.20;6.80;;;-1.90;99.90;;;;;;5068464;28;20230;-79
2022/03/18 05:30:19;;;;;;;23.67;8.00;;;-1.90;99.90;;;;;;5066085;28;20238;-78
2022/03/18 05:32:46;;;;;;;19.47;8.27;;;-1.90;99.90;;;;;;5068019;28;20226;-79
2022/03/18 05:35:13;;;;;;;20.97;7.77;;;-1.90;99.90;;;;;;5070253;28;20592;-79
2022/03/18 05:37:40;;;;;;;21.23;8.03;;;-1.90;99.90;;;;;;5074440;28;20601;-77
2022/03/18 05:40:10;;;;;;;15.93;6.53;;;-1.90;99.90;;;;;;5066393;28;20712;-79
2022/03/18 05:42:37;;;;;;;19.67;6.97;;;-1.90;99.90;;;;;;5068112;28;20212;-79
2022/03/18 05:45:04;;;;;;;14.40;6.60;;;-1.90;99.90;;;;;;5067526;28;20221;-80
2022/03/18 05:47:32;;;;;;;17.53;6.77;;;-1.90;99.90;;;;;;5073244;28;20233;-80
2022/03/18 05:50:05;;;;;;;16.00;6.83;;;-1.80;99.90;;;;;;5066790;28;20233;-80
2022/03/18 05:52:32;;;;;;;17.50;7.33;;;-1.80;99.90;;;;;;5068875;28;20244;-79
2022/03/18 05:54:59;;;;;;;16.43;7.40;;;-1.70;99.90;;;;;;5064411;28;20312;-79
2022/03/18 05:57:26;;;;;;;16.43;7.43;;;-1.70;99.90;;;;;;5071948;28;20240;-79
2022/03/18 05:59:54;;;;;;;16.63;7.63;;;-1.60;99.90;;;;;;5071422;28;20311;-79
2022/03/18 06:02:21;;;;;;;16.67;7.60;;;-1.50;99.90;;;;;;5071359;28;20217;-79
2022/03/18 06:04:50;;;;;;;14.07;6.80;;;-1.40;99.90;;;;;;5071166;28;20225;-82
2022/03/18 06:07:16;;;;;;;18.97;7.93;;;-1.30;99.90;;;;;;5069558;28;20227;-84
2022/03/18 06:12:28;;;;;;;16.60;7.57;;;-1.00;99.90;;;;;;5067954;28;20657;-83
2022/03/18 06:14:55;;;;;;;16.00;7.97;;;-0.80;99.90;;;;;;5064365;28;20235;-84
2022/03/18 06:17:21;;;;;;;17.60;7.30;;;-0.60;99.90;;;;;;5066874;28;20233;-83
2022/03/18 06:19:50;;;;;;;17.97;6.67;;;-0.40;99.90;;;;;;5070136;28;20417;-84
2022/03/18 06:22:16;;;;;;;19.90;6.93;;;-0.10;99.90;;;;;;5068009;28;20235;-83
2022/03/18 06:24:43;;;;;;;16.43;7.47;;;0.00;99.90;;;;;;5069957;28;20231;-84
2022/03/18 06:27:10;;;;;;;15.63;6.70;;;0.20;99.90;;;;;;5068669;28;20701;-83
2022/03/18 06:29:39;;;;;;;16.60;6.27;;;0.30;99.90;;;;;;5068109;28;20338;-85
2022/03/18 06:32:07;;;;;;;18.40;6.93;;;0.40;99.90;;;;;;5068602;28;20254;-84
2022/03/18 06:34:34;;;;;;;16.10;6.80;;;0.50;99.90;;;;;;5064927;28;20261;-84
2022/03/18 06:37:02;;;;;;;16.27;7.20;;;0.50;99.90;;;;;;5069463;28;20384;-83
2022/03/18 06:39:29;;;;;;;13.27;6.40;;;0.60;99.90;;;;;;5068301;28;20229;-83
2022/03/18 06:41:56;;;;;;;17.00;6.67;;;0.70;99.90;;;;;;5069293;28;20224;-84
2022/03/18 06:44:23;;;;;;;15.20;7.23;;;0.80;99.90;;;;;;5066548;28;20223;-84
2022/03/18 06:46:49;;;;;;;20.07;7.83;;;0.80;99.90;;;;;;5069099;28;20231;-84
2022/03/18 06:49:16;;;;;;;14.23;7.00;;;0.90;99.90;;;;;;5064842;28;20645;-84
2022/03/18 06:51:43;;;;;;;15.90;6.90;;;1.00;99.90;;;;;;5069017;28;20299;-84
2022/03/18 06:54:12;;;;;;;14.93;7.17;;;1.00;99.90;;;;;;5068200;28;20231;-84
2022/03/18 06:56:39;;;;;;;13.73;7.43;;;1.10;99.90;;;;;;5068943;28;20228;-83
2022/03/18 06:59:06;;;;;;;18.03;7.17;;;1.20;99.90;;;;;;5070021;28;20227;-83
2022/03/18 07:01:32;;;;;;;17.23;7.23;;;1.20;99.90;;;;;;5067864;28;20253;-85
2022/03/18 07:03:59;;;;;;;15.07;6.97;;;1.30;99.90;;;;;;5068532;28;20219;-84
2022/03/18 07:06:26;;;;;;;14.83;6.20;;;1.40;99.90;;;;;;5070365;28;20255;-86
2022/03/18 07:08:53;;;;;;;16.73;6.67;;;1.60;99.90;;;;;;5068307;28;20232;-84
2022/03/18 07:11:21;;;;;;;18.77;5.77;;;1.70;99.90;;;;;;5066332;28;20231;-84
2022/03/18 07:13:48;;;;;;;13.53;6.33;;;1.80;99.90;;;;;;5068036;28;20319;-84
2022/03/18 07:18:59;;;;;;;17.70;6.80;;;2.00;99.90;;;;;;5061735;28;20247;-84
2022/03/18 07:21:26;;;;;;;19.23;6.17;;;2.10;99.90;;;;;;5068120;28;20236;-85
2022/03/18 07:23:53;;;;;;;21.57;6.13;;;2.20;99.90;;;;;;5065389;28;20738;-83
2022/03/18 07:26:19;;;;;;;14.60;5.80;;;2.30;99.90;;;;;;5069374;28;20330;-83
2022/03/18 07:28:47;;;;;;;12.77;6.10;;;2.40;99.90;;;;;;5067674;28;20247;-86
2022/03/18 07:31:14;;;;;;;14.93;8.30;;;2.40;99.90;;;;;;5069090;28;20236;-84
2022/03/18 07:33:41;;;;;;;12.87;6.13;;;2.50;99.90;;;;;;5061785;28;20220;-83
2022/03/18 07:36:07;;;;;;;20.13;7.07;;;2.60;99.90;;;;;;5068464;28;20224;-84
2022/03/18 07:38:34;;;;;;;14.47;6.37;;;2.70;99.90;;;;;;5068212;28;20243;-84
2022/03/18 07:41:01;;;;;;;14.53;6.20;;;2.80;99.90;;;;;;5072727;28;20227;-84
2022/03/18 07:43:28;;;;;;;13.27;5.97;;;2.90;99.90;;;;;;5069390;28;20314;-84
2022/03/18 07:45:56;;;;;;;12.70;6.20;;;3.00;99.90;;;;;;5069128;28;20244;-84
2022/03/18 07:48:26;;;;;;;14.37;5.80;;;3.10;99.90;;;;;;5070309;28;20662;-85
2022/03/18 07:50:54;;;;;;;10.83;5.87;;;3.30;99.90;;;;;;5069348;28;20391;-84
2022/03/18 07:53:21;;;;;;;15.33;6.60;;;3.30;99.90;;;;;;5071264;28;20225;-84
2022/03/18 07:55:48;;;;;;;12.17;6.20;;;3.40;99.90;;;;;;5071049;28;20276;-87
2022/03/18 07:58:15;;;;;;;15.03;5.87;;;3.50;99.90;;;;;;5103017;28;20238;-83
2022/03/18 08:00:43;;;;;;;10.87;5.80;;;3.60;99.90;;;;;;5071261;28;20644;-84
2022/03/18 08:03:11;;;;;;;15.57;5.73;;;3.70;99.90;;;;;;5070499;28;20304;-84
2022/03/18 08:05:38;;;;;;;12.50;6.17;;;3.80;99.90;;;;;;5071565;28;20391;-84
2022/03/18 08:08:05;;;;;;;26.67;13.67;;;3.90;99.90;;;;;;5073241;28;20661;-84
2022/03/18 08:10:32;;;;;;;21.33;11.47;;;4.00;99.90;;;;;;5071749;28;20225;-84
2022/03/18 08:12:59;;;;;;;19.37;6.97;;;4.10;99.90;;;;;;5071526;28;20669;-84
2022/03/18 08:15:28;;;;;;;13.60;6.50;;;4.00;99.90;;;;;;5070716;28;20625;-83
2022/03/18 08:17:55;;;;;;;12.77;6.23;;;4.10;99.90;;;;;;5074501;28;20226;-84
2022/03/18 08:20:23;;;;;;;12.33;6.20;;;4.10;99.90;;;;;;5072959;28;20597;-84
2022/03/18 08:22:51;;;;;;;12.20;6.53;;;4.20;99.90;;;;;;5070871;28;20708;-84
2022/03/18 08:25:18;;;;;;;16.50;6.50;;;4.20;99.90;;;;;;5072048;28;20318;-83
2022/03/18 08:27:47;;;;;;;13.73;6.30;;;4.30;99.90;;;;;;5069908;28;20240;-83
2022/03/18 08:30:14;;;;;;;13.83;6.57;;;4.30;99.90;;;;;;5070329;28;20895;-83
2022/03/18 08:32:41;;;;;;;12.30;6.40;;;4.50;99.90;;;;;;5073936;28;20233;-85
2022/03/18 08:35:09;;;;;;;13.80;6.03;;;4.60;99.90;;;;;;5072593;28;20222;-84
2022/03/18 08:40:23;;;;;;;13.93;6.03;;;5.10;99.90;;;;;;5046911;28;20238;-84
2022/03/18 08:42:50;;;;;;;13.57;6.70;;;5.40;99.90;;;;;;5051540;28;20260;-83
2022/03/18 08:45:18;;;;;;;15.07;6.10;;;5.60;99.90;;;;;;5051564;28;20230;-84
2022/03/18 08:47:45;;;;;;;12.10;6.70;;;5.90;99.90;;;;;;5050656;28;20258;-84
2022/03/18 08:50:13;;;;;;;13.40;5.73;;;6.40;99.90;;;;;;5051784;28;20223;-85
2022/03/18 08:52:42;;;;;;;11.03;6.50;;;7.00;99.90;;;;;;5050625;28;20255;-85
2022/03/18 08:55:11;;;;;;;14.80;5.50;;;7.70;99.90;;;;;;5051090;28;20229;-84
2022/03/18 08:57:38;;;;;;;10.87;6.07;;;8.50;99.90;;;;;;5049781;28;20239;-84
2022/03/18 09:00:07;;;;;;;11.47;5.80;;;9.30;99.90;;;;;;5050175;28;20704;-84
2022/03/18 09:02:35;;;;;;;13.70;5.70;;;10.20;99.90;;;;;;5045576;28;20224;-86
2022/03/18 09:05:02;;;;;;;12.27;6.00;;;10.90;99.90;;;;;;5041626;28;20250;-84
2022/03/18 09:07:29;;;;;;;9.77;5.90;;;11.70;99.90;;;;;;5048679;28;20249;-85
2022/03/18 09:09:57;;;;;;;12.80;6.10;;;12.40;99.90;;;;;;5048136;28;20237;-84
2022/03/18 09:12:24;;;;;;;13.07;5.93;;;13.10;99.90;;;;;;5048450;28;20702;-84
2022/03/18 09:14:51;;;;;;;11.77;5.63;;;13.60;99.40;;;;;;5046928;28;20237;-85
2022/03/18 09:17:21;;;;;;;12.43;5.80;;;14.10;98.90;;;;;;5049450;28;20247;-85
2022/03/18 09:19:48;;;;;;;14.07;5.80;;;14.60;97.10;;;;;;5047524;28;20234;-84
2022/03/18 09:22:16;;;;;;;15.10;5.53;;;15.00;97.10;;;;;;5047753;28;20248;-85
2022/03/18 09:24:43;;;;;;;15.13;6.43;;;15.40;96.30;;;;;;5047459;28;20241;-85
2022/03/18 09:27:14;;;;;;;11.07;5.73;;;15.70;95.50;;;;;;5047754;28;20228;-85
2022/03/18 09:29:41;;;;;;;13.93;5.83;;;16.00;94.90;;;;;;5046936;28;20383;-85
2022/03/18 09:32:09;;;;;;;14.83;5.90;;;16.40;94.50;;;;;;5046540;28;20253;-86
2022/03/18 09:34:35;;;;;;;13.80;6.30;;;16.60;94.70;;;;;;5046004;28;20591;-85
2022/03/18 09:37:02;;;;;;;11.80;6.40;;;17.00;93.70;;;;;;5047214;28;20234;-85
2022/03/18 09:39:29;;;;;;;14.67;6.23;;;17.30;93.60;;;;;;5048000;28;21430;-85
2022/03/18 09:41:56;;;;;;;11.70;6.83;;;17.50;92.70;;;;;;5048426;28;20223;-85
2022/03/18 09:44:25;;;;;;;14.40;6.03;;;17.80;92.30;;;;;;5047107;28;20242;-85
2022/03/18 09:46:52;;;;;;;15.97;6.50;;;18.00;91.40;;;;;;5045267;28;20247;-85
2022/03/18 09:49:22;;;;;;;12.50;6.30;;;18.30;91.60;;;;;;5041805;28;20231;-84
2022/03/18 09:51:49;;;;;;;12.83;6.20;;;18.50;91.00;;;;;;5040976;28;20858;-85
2022/03/18 09:54:26;;;;;;;13.43;6.07;;;18.80;90.40;;;;;;5041757;28;20231;-86
2022/03/18 09:56:53;;;;;;;11.63;5.83;;;19.00;90.40;;;;;;5046469;28;20236;-85
2022/03/18 09:59:22;;;;;;;10.63;5.80;;;19.30;89.80;;;;;;5047261;28;20286;-88
2022/03/18 10:01:50;;;;;;;14.10;6.37;;;19.40;89.30;;;;;;5046624;28;20250;-86
2022/03/18 10:04:17;;;;;;;13.17;6.10;;;19.60;85.50;;;;;;5046837;28;20343;-85
2022/03/18 10:06:44;;;;;;;12.83;6.40;;;19.80;86.80;;;;;;5045859;28;20309;-85
2022/03/18 10:09:12;;;;;;;12.90;5.97;;;19.90;86.90;;;;;;5046555;28;20234;-85
2022/03/18 10:11:43;;;;;;;10.90;6.00;;;20.00;86.10;;;;;;5045703;28;20244;-85
2022/03/18 10:14:15;;;;;;;14.40;6.47;;;20.10;85.10;;;;;;5045607;28;20232;-85
2022/03/18 10:16:44;;;;;;;13.63;6.20;;;20.10;83.50;;;;;;5046421;28;20255;-85
2022/03/18 10:19:13;;;;;;;13.13;6.28;;;20.20;83.30;;;;;;5045348;28;20224;-85
2022/03/18 10:21:54;;;;;;;12.00;6.07;;;20.20;82.50;;;;;;5047881;28;20236;-85
2022/03/18 10:24:27;;;;;;;12.80;6.07;;;20.40;79.90;;;;;;5045615;28;20223;-85
2022/03/18 10:27:10;;;;;;;13.98;5.45;;;20.50;81.00;;;;;;5047868;28;20709;-85
2022/03/18 10:29:40;;;;;;;9.63;5.97;;;20.60;79.40;;;;;;5037913;28;20757;-85
2022/03/18 10:32:08;;;;;;;10.50;5.20;;;20.70;79.20;;;;;;5047856;28;20469;-85
2022/03/18 10:37:23;;;;;;;14.18;6.35;;;20.80;79.40;;;;;;5046985;28;20369;-85
2022/03/18 10:39:51;;;;;;;16.52;6.05;;;20.90;79.80;;;;;;5044847;28;20744;-85
2022/03/18 10:42:20;;;;;;;12.68;5.40;;;20.90;78.80;;;;;;5042232;28;20220;-85
2022/03/18 10:44:49;;;;;;;12.02;5.53;;;20.90;77.50;;;;;;5045778;28;20231;-85
2022/03/18 10:47:26;;;;;;;16.88;6.80;;;20.90;77.50;;;;;;5047080;28;20232;-85
2022/03/18 10:50:13;;;;;;;17.73;5.90;;;21.00;75.90;;;;;;5045395;28;20227;-85
2022/03/18 10:52:42;;;;;;;10.27;5.82;;;21.10;77.10;;;;;;5043008;28;20232;-85
2022/03/18 10:55:19;;;;;;;10.57;4.88;;;21.20;76.80;;;;;;5045685;28;20230;-86
2022/03/18 10:57:53;;;;;;;12.45;5.07;;;21.30;75.30;;;;;;5046995;28;20306;-86
2022/03/18 11:00:21;;;;;;;11.32;4.50;;;21.40;75.60;;;;;;5051961;28;20252;-85
2022/03/18 11:02:50;;;;;;;10.93;5.55;;;21.50;75.70;;;;;;5046872;28;20303;-86
2022/03/18 11:05:22;;;;;;;10.00;4.82;;;21.60;75.10;;;;;;5044459;28;20255;-85
2022/03/18 11:07:51;;;;;;;9.43;4.70;;;21.70;74.10;;;;;;5045889;28;20868;-85
2022/03/18 11:13:05;;;;;;;11.30;5.28;;;22.00;73.00;;;;;;5037131;28;20701;-85
2022/03/18 11:15:33;;;;;;;9.93;5.40;;;22.20;72.60;;;;;;5044496;28;20220;-86
2022/03/18 11:18:03;;;;;;;10.60;5.38;;;22.20;70.90;;;;;;5046393;28;20234;-86
2022/03/18 11:20:33;;;;;;;10.20;5.28;;;22.20;70.30;;;;;;5040513;28;20240;-85
2022/03/18 11:23:00;;;;;;;10.38;5.40;;;22.10;68.70;;;;;;5036665;28;20231;-86
2022/03/18 11:25:28;;;;;;;9.48;5.45;;;22.00;70.10;;;;;;5047811;28;20224;-85
2022/03/18 11:27:57;;;;;;;8.23;5.13;;;21.80;69.70;;;;;;5046796;28;20224;-85
2022/03/18 11:30:26;;;;;;;17.00;6.10;;;21.80;68.20;;;;;;5047342;28;20234;-85
2022/03/18 11:33:19;;;;;;;10.70;5.03;;;21.70;68.90;;;;;;5048271;28;20314;-85
2022/03/18 11:36:22;;;;;;;12.25;5.15;;;21.60;68.50;;;;;;5047612;28;20230;-85
2022/03/18 11:39:02;;;;;;;8.90;5.03;;;21.50;70.70;;;;;;5049314;28;20259;-86
2022/03/18 11:41:52;;;;;;;9.82;5.03;;;21.50;68.20;;;;;;5046482;28;20231;-85
2022/03/18 11:44:39;;;;;;;9.88;4.55;;;21.60;68.80;;;;;;5048296;28;21037;-87
2022/03/18 11:47:39;;;;;;;9.95;4.80;;;21.60;69.30;;;;;;5051858;28;20235;-80
2022/03/18 11:50:39;;;;;;;9.23;4.63;;;21.70;68.20;;;;;;5051501;28;20232;-85
2022/03/18 11:53:08;;;;;;;10.93;5.25;;;21.80;68.30;;;;;;5047749;28;20220;-85
2022/03/18 11:55:35;;;;;;;8.70;4.80;;;21.90;68.40;;;;;;5048678;28;20318;-85
2022/03/18 11:58:01;;;;;;;10.25;4.97;;;22.00;68.70;;;;;;5047837;28;20263;-85
2022/03/18 12:00:43;;;;;;;7.55;4.47;;;22.00;68.20;;;;;;5041270;28;20220;-85
2022/03/18 12:03:19;;;;;;;11.07;4.47;;;22.00;62.80;;;;;;5054625;28;20272;-85
2022/03/18 12:05:54;;;;;;;12.10;4.57;;;22.00;64.50;;;;;;5048759;28;20716;-84
2022/03/18 12:08:54;;;;;;;7.45;3.95;;;21.90;63.90;;;;;;5049637;28;20230;-86
2022/03/18 12:11:28;;;;;;;8.82;3.75;;;21.80;63.90;;;;;;5044557;28;20236;-85
2022/03/18 12:13:55;;;;;;;8.25;3.63;;;21.70;65.20;;;;;;5047478;28;20228;-85
2022/03/18 12:16:22;;;;;;;8.25;3.67;;;21.70;65.20;;;;;;5047258;28;20720;-85
2022/03/18 12:18:55;;;;;;;7.95;3.25;;;21.60;65.10;;;;;;5049001;28;20232;-85
2022/03/18 12:21:34;;;;;;;9.90;3.88;;;21.60;64.20;;;;;;5046991;28;20236;-84
2022/03/18 12:24:09;;;;;;;11.23;3.85;;;21.60;64.80;;;;;;5046626;28;20273;-86
2022/03/18 12:26:39;;;;;;;8.15;3.42;;;21.60;64.30;;;;;;5048188;28;20320;-84
2022/03/18 12:29:08;;;;;;;8.57;3.63;;;21.50;63.90;;;;;;5046819;28;20318;-85
2022/03/18 12:31:35;;;;;;;9.73;3.72;;;21.30;64.40;;;;;;5060981;28;20227;-85
2022/03/18 12:34:07;;;;;;;7.40;3.47;;;21.00;64.40;;;;;;5041289;28;20955;-86
2022/03/18 12:36:35;;;;;;;7.03;3.38;;;20.70;63.80;;;;;;5046841;28;20305;-85
2022/03/18 12:39:12;;;;;;;9.35;2.78;;;20.50;64.40;;;;;;5048673;28;20754;-87
2022/03/18 12:41:43;;;;;;;4.72;2.10;;;20.40;64.10;;;;;;5039596;28;20248;-84
2022/03/18 12:44:10;;;;;;;5.88;2.72;;;20.30;64.30;;;;;;5048466;28;20247;-84
2022/03/18 12:46:39;;;;;;;6.22;3.10;;;20.20;63.20;;;;;;5044027;28;20310;-86
2022/03/18 12:49:11;;;;;;;6.20;2.57;;;20.00;63.80;;;;;;5058929;28;20971;-84
2022/03/18 12:51:49;;;;;;;7.63;2.80;;;19.70;62.80;;;;;;5049370;28;20259;-85
2022/03/18 12:54:16;;;;;;;7.50;3.03;;;19.50;64.20;;;;;;5048879;28;20224;-85
2022/03/18 12:57:02;;;;;;;7.70;2.57;;;19.20;63.00;;;;;;5040656;28;20228;-83
2022/03/18 12:59:29;;;;;;;7.90;2.60;;;18.80;64.00;;;;;;5046798;28;20224;-84
2022/03/18 13:01:57;;;;;;;8.07;2.70;;;18.40;65.00;;;;;;5049641;28;20233;-84
2022/03/18 13:04:24;;;;;;;7.10;2.70;;;18.00;66.00;;;;;;5045653;28;20246;-84
2022/03/18 13:06:57;;;;;;;8.00;2.80;;;17.80;67.10;;;;;;5048168;28;20273;-84